Wessington Springs, South Dakota
Current Conditions -  °F | °C
As of 12:55 AM on Saturday 29 Nov 2014 (Local Time) from KHON Reporting Station
Haze Haze  
Wind Chill: 15°   Ceiling: Unl
Heat Index: 25°   Visibility: 6mi
Dew Point: 23°   Wind: 10mph
Humidity: 92%   Direction: 160°SSE
Pressure: 29.47"   Gusts: NA
Location:  44.08°N, 98.57°W
Report Text: KHON 290655Z AUTO 16009KT 6SM BR CLR M04/M05 A2947 RMK AO2 SLP993 T10391050
Loading
Personal Weather Stations






























Interactive Weather Map New forecast layout! Learn more

10-Day Weather Forecast

Advertisements
Track Severe Weather on mobile